Trondheim, Norway

4:57 AM CET on December 29, 2014 (GMT +0100)
Vaernes Air Base | Change Station
CLOSE
Current Station
Airport
Location: Trondheim,
Elevation: 56 ft
Nearby Weather Stations

Elev 56 ft 63.46 °N, 10.94 °E | Updated 7 minutes ago

Light Snow Showers
Light Showers Snow
32 °F
Feels Like 32 °F
N
1
Wind Variable Wind from NNE

Today
High -- | Low -- °F
--% Chance of Precip.
Yesterday
High -- | Low -- °F
Precip. -- in
9:59 AM 2:36 PM
First Quarter, 54% visible
Pressure 30.09 in
Visibility 6.2 miles
Clouds Mostly Cloudy 2000 ft
Dew Point 28 °F
Humidity 87%
Rainfall 0.00 in
Snow Depth Not available.
UV 0 out of 12
Pollen Not available.
Air Quality Not available.
Flu Activity Not available.
METAR ENVA 290350Z 03001KT 9999 5000E -SHSN BKN020 M00/M02 Q1019 RMK WIND 670FT 21014KT

More Conditions Fewer Conditions

Pressure 30.09 in
Visibility 6.2 miles
Clouds Mostly Cloudy 2000 ft
Dew Point 28 °F
Humidity 87%
Rainfall 0.00 in
Snow Depth Not available.
UV 0 out of 12
Pollen Not available.
Air Quality Not available.
Flu Activity Not available.
METAR ENVA 290350Z 03001KT 9999 5000E -SHSN BKN020 M00/M02 Q1019 RMK WIND 670FT 21014KT

More Conditions Fewer Conditions

10-Day Weather Forecast

Almanac

Astronomy

Dec. 29, 2014 Rise Set
Actual Time
Civil Twilight
Nautical Twilight
Astronomical Twilight
Moon
Length of Visible Light
Length of Day
Tomorrow will be .
, % of the Moon is Illuminated

Today's Extremes

Country Highs Country Lows

Community

WunderPhotos

Upload Photos

1,781,520 photos uploaded!

WunderBlogs® & News

Nearby

Air Quality

  Air Quality AQ Index Pollutant
Not available.

Snow Depth

Station Depth Elevation

Earthquake Activity

City Distance Mag. Time & Date
Minimum magnitude displayed is 2.5.

Coastal Water Temperatures

Place Temperature

Nearby Weather Stations